Dankov, Russia
Current Conditions -  °F | °C
As of 4:30 AM on Wednesday 22 Oct 2014 (Local Time) from UUOO Reporting Station
Overcast Overcast  
Wind Chill: 32°   Ceiling: 3000
Heat Index: 39°   Visibility: 6mi
Dew Point: 32°   Wind: 11mph
Humidity: 75%   Direction: 330°NNW
Pressure: 29.62"   Gusts: NA
Location:  53.25°N, 39.15°E
Report Text: UUOO 220130Z 33005MPS 9999 OVC030 04/00 Q1003 NOSIG RMK30290148
Loading
Personal Weather Stations






























Interactive Weather Map
Tropical Storm Tracking
New forecast layout! Learn more

10-Day Weather Forecast

Advertisements
Track Severe Weather on mobile